Time;durP1;ratioP1;P1;durP2;ratioP2;P2;SDS_P1;SDS_P2;PMS_P1;PMS_P2;Temp;Humidity;BMP_temperature;BMP_pressure;BME280_temperature;BME280_humidity;BME280_pressure;Samples;Min_cycle;Max_cycle;Signal;HPM_P1;HPM_P2
2021/05/07 00:01:41;;;;;;;;;8.25;8.25;;;;;28.46;64.50;99130.31;5071846;28;8933;-80
2021/05/07 00:04:11;;;;;;;;;8.50;8.50;;;;;28.50;64.67;99134.63;5086949;28;8917;-81
2021/05/07 00:06:39;;;;;;;;;9.50;9.50;;;;;28.53;64.60;99139.28;5071807;28;8917;-80
2021/05/07 00:09:07;;;;;;;;;8.50;8.50;;;;;28.58;64.09;99152.50;5087176;28;8840;-80
2021/05/07 00:11:35;;;;;;;;;7.75;7.75;;;;;28.60;64.48;99149.41;5071686;28;8848;-80
2021/05/07 00:14:04;;;;;;;;;10.50;10.50;;;;;28.60;64.36;99154.06;5073982;28;8934;-80
2021/05/07 00:16:33;;;;;;;;;12.75;12.75;;;;;28.69;63.43;99165.34;5075583;28;8844;-80
2021/05/07 00:19:05;;;;;;;;;12.50;12.50;;;;;28.72;64.54;99162.66;5075499;28;9568;-80
2021/05/07 00:21:39;;;;;;;;;10.75;10.75;;;;;28.67;64.56;99156.81;5075511;28;8898;-80
2021/05/07 00:24:08;;;;;;;;;12.75;12.75;;;;;28.80;64.23;99175.13;5075422;28;8948;-80
2021/05/07 00:26:37;;;;;;;;;11.00;11.00;;;;;28.85;63.99;99174.03;5075475;28;8836;-80
2021/05/07 00:29:06;;;;;;;;;10.25;10.25;;;;;28.89;63.18;99174.81;5075348;28;8832;-80
2021/05/07 00:31:34;;;;;;;;;9.75;9.75;;;;;28.94;63.58;99188.03;5076158;28;8856;-80
2021/05/07 00:34:03;;;;;;;;;10.00;10.00;;;;;28.95;63.68;99183.41;5075524;28;9576;-80
2021/05/07 00:36:31;;;;;;;;;8.75;8.75;;;;;29.00;63.49;99189.25;5075977;28;8835;-80
2021/05/07 00:38:59;;;;;;;;;12.50;12.50;;;;;29.02;63.64;99195.09;5075183;28;8858;-81
2021/05/07 00:41:27;;;;;;;;;8.25;8.25;;;;;29.05;63.15;99205.19;5075070;28;8840;-80
2021/05/07 00:43:56;;;;;;;;;11.25;9.75;;;;;29.08;62.92;99203.66;5075143;28;8836;-80
2021/05/07 00:46:24;;;;;;;;;9.75;9.75;;;;;28.97;62.79;99178.38;5075523;28;8828;-81
2021/05/07 00:48:53;;;;;;;;;9.75;9.75;;;;;29.10;63.07;99204.06;5076641;28;8828;-81
2021/05/07 00:51:25;;;;;;;;;7.75;7.75;;;;;29.09;63.04;99208.72;5076277;28;8860;-75
2021/05/07 00:53:53;;;;;;;;;11.25;11.25;;;;;29.11;62.85;99203.66;5075105;28;8824;-73
2021/05/07 00:56:21;;;;;;;;;10.25;9.75;;;;;29.12;62.77;99205.22;5074983;28;9466;-77
2021/05/07 00:58:52;;;;;;;;;9.75;9.75;;;;;29.16;62.11;99203.31;5074899;28;9584;-78
2021/05/07 01:01:20;;;;;;;;;9.25;9.25;;;;;29.15;63.12;99212.63;5075068;28;8863;-77
2021/05/07 01:03:48;;;;;;;;;10.75;10.75;;;;;29.20;63.04;99223.13;5074845;28;8836;-76
2021/05/07 01:06:16;;;;;;;;;10.25;10.25;;;;;29.22;62.55;99222.75;5072359;28;8905;-76
2021/05/07 01:08:44;;;;;;;;;7.50;7.50;;;;;29.28;62.12;99228.59;5073692;28;8848;-76
2021/05/07 01:11:12;;;;;;;;;8.50;8.50;;;;;29.34;62.15;99240.69;5073482;28;8852;-76
2021/05/07 01:13:40;;;;;;;;;8.75;8.75;;;;;29.33;61.89;99228.25;5071989;28;8848;-78
2021/05/07 01:16:09;;;;;;;;;9.50;9.50;;;;;29.38;61.83;99230.59;5071617;28;8885;-76
2021/05/07 01:18:37;;;;;;;;;9.50;9.50;;;;;29.40;61.61;99234.50;5073114;28;8867;-77
2021/05/07 01:21:06;;;;;;;;;10.50;10.25;;;;;29.43;61.21;99233.00;5073363;28;8844;-77
2021/05/07 01:23:34;;;;;;;;;8.50;7.75;;;;;29.48;60.75;99236.13;5071957;28;8870;-76
2021/05/07 01:26:02;;;;;;;;;5.00;5.00;;;;;29.56;60.94;99236.16;5072745;28;8852;-76
2021/05/07 01:28:33;;;;;;;;;9.75;9.75;;;;;29.61;60.84;99236.56;5073096;28;8864;-77
2021/05/07 01:31:02;;;;;;;;;6.75;6.75;;;;;29.61;60.20;99241.22;5073614;28;8852;-76
2021/05/07 01:33:30;;;;;;;;;9.50;9.50;;;;;29.69;60.46;99253.69;5073209;28;8852;-76
2021/05/07 01:35:58;;;;;;;;;9.25;9.25;;;;;29.73;59.88;99246.34;5072962;28;8840;-76
2021/05/07 01:38:27;;;;;;;;;7.50;7.50;;;;;29.77;60.02;99238.97;5072185;28;8860;-76
2021/05/07 01:40:55;;;;;;;;;8.00;8.00;;;;;29.79;59.30;99240.16;5072850;28;8938;-75
2021/05/07 01:43:23;;;;;;;;;7.25;7.25;;;;;29.85;60.02;99246.78;5071613;28;9022;-78
2021/05/07 01:45:51;;;;;;;;;8.50;8.50;;;;;29.86;58.57;99253.78;5072738;28;8852;-78
2021/05/07 01:48:19;;;;;;;;;8.50;8.50;;;;;29.85;59.20;99237.84;5072227;28;8872;-76
2021/05/07 01:50:49;;;;;;;;;7.75;7.75;;;;;29.92;58.76;99246.00;5087710;28;8925;-75
2021/05/07 01:53:17;;;;;;;;;8.00;8.00;;;;;29.95;59.49;99249.88;5072638;28;8844;-76
2021/05/07 01:55:47;;;;;;;;;7.00;7.00;;;;;29.98;58.07;99254.56;5072954;28;8840;-75
2021/05/07 01:58:17;;;;;;;;;8.25;8.25;;;;;30.02;59.27;99258.09;5071624;28;8851;-76
2021/05/07 02:00:45;;;;;;;;;5.75;5.75;;;;;30.02;59.54;99258.88;5072213;28;8930;-78
2021/05/07 02:03:13;;;;;;;;;9.00;9.00;;;;;30.02;59.30;99256.16;5074690;28;8909;-77
2021/05/07 02:05:41;;;;;;;;;7.75;7.75;;;;;30.03;58.69;99256.94;5074243;28;9575;-79
2021/05/07 02:08:13;;;;;;;;;7.50;7.50;;;;;30.00;58.85;99249.50;5074547;28;9677;-77
2021/05/07 02:10:43;;;;;;;;;8.25;8.25;;;;;30.05;59.00;99262.75;5074686;28;8852;-78
2021/05/07 02:13:12;;;;;;;;;6.25;6.25;;;;;30.07;58.51;99271.31;5076909;28;8848;-76
2021/05/07 02:15:40;;;;;;;;;9.00;9.00;;;;;30.05;59.28;99266.25;5081586;28;9573;-76
2021/05/07 02:18:09;;;;;;;;;8.00;8.00;;;;;30.13;58.86;99272.50;5079506;28;8849;-76
2021/05/07 02:20:40;;;;;;;;;7.75;7.75;;;;;30.10;58.53;99265.13;5081222;28;8852;-74
2021/05/07 02:23:09;;;;;;;;;6.75;6.75;;;;;30.16;58.57;99261.63;5084140;28;8848;-75
2021/05/07 02:25:37;;;;;;;;;8.00;8.00;;;;;30.18;58.56;99261.25;5085270;28;8844;-77
2021/05/07 02:28:05;;;;;;;;;10.00;10.00;;;;;30.21;58.75;99263.19;5091302;28;8841;-77
2021/05/07 02:30:33;;;;;;;;;10.25;10.25;;;;;30.25;59.17;99257.75;5084091;28;8833;-77
2021/05/07 02:33:02;;;;;;;;;7.50;6.75;;;;;30.25;58.86;99255.81;5078902;28;8909;-76
2021/05/07 02:35:30;;;;;;;;;8.00;8.00;;;;;30.28;58.84;99248.84;5072760;28;8836;-78
2021/05/07 02:37:59;;;;;;;;;9.50;9.50;;;;;30.29;58.34;99244.94;5079819;28;8821;-81
2021/05/07 02:40:27;;;;;;;;;11.75;11.75;;;;;30.32;58.13;99239.50;5075699;28;8909;-80
2021/05/07 02:42:56;;;;;;;;;8.25;8.25;;;;;30.37;58.67;99232.91;5091794;28;8854;-82
2021/05/07 02:45:24;;;;;;;;;8.75;8.75;;;;;30.37;58.45;99236.41;5077719;28;8846;-83
2021/05/07 02:47:52;;;;;;;;;11.00;11.00;;;;;30.47;58.11;99251.19;5084468;28;8990;-79
2021/05/07 02:50:21;;;;;;;;;8.75;8.75;;;;;30.51;58.37;99252.75;5082169;28;8840;-82
2021/05/07 02:52:50;;;;;;;;;10.50;10.50;;;;;30.56;57.89;99257.03;5082179;28;8837;-84
2021/05/07 02:55:18;;;;;;;;;8.00;8.00;;;;;30.62;57.51;99254.75;5076047;28;8828;-79
2021/05/07 02:57:46;;;;;;;;;6.75;6.75;;;;;30.69;57.56;99249.28;5081831;28;8835;-79
2021/05/07 03:00:15;;;;;;;;;3.75;3.75;;;;;30.73;57.66;99258.25;5077781;28;8926;-79
2021/05/07 03:02:43;;;;;;;;;9.00;9.00;;;;;30.81;57.81;99251.63;5080305;28;8896;-77
2021/05/07 03:05:13;;;;;;;;;10.50;10.50;;;;;30.89;56.79;99255.91;5078394;28;8903;-76
2021/05/07 03:07:42;;;;;;;;;9.50;8.00;;;;;30.90;56.83;99245.78;5077609;28;9938;-78
2021/05/07 03:10:10;;;;;;;;;9.50;9.50;;;;;31.01;57.01;99255.50;5081485;28;8853;-77
2021/05/07 03:12:39;;;;;;;;;9.00;9.00;;;;;31.08;56.95;99257.44;5074915;28;8964;-77
2021/05/07 03:15:07;;;;;;;;;9.50;9.50;;;;;31.12;56.75;99248.09;5072372;28;8836;-79
2021/05/07 03:17:36;;;;;;;;;10.25;10.25;;;;;31.23;56.71;99250.03;5072601;28;8966;-81
2021/05/07 03:20:06;;;;;;;;;10.75;10.75;;;;;31.29;56.56;99251.19;5087554;28;8906;-80
2021/05/07 03:22:35;;;;;;;;;10.50;10.50;;;;;31.27;56.71;99235.22;5083381;28;8845;-78
2021/05/07 03:25:03;;;;;;;;;10.75;10.75;;;;;31.36;56.47;99251.94;5086195;28;8972;-75
2021/05/07 03:27:31;;;;;;;;;8.00;8.00;;;;;31.41;56.86;99253.47;5085700;28;8890;-75
2021/05/07 03:30:00;;;;;;;;;9.50;9.50;;;;;31.47;56.92;99254.63;5085648;28;9241;-74
2021/05/07 03:32:28;;;;;;;;;8.75;8.75;;;;;31.48;56.69;99242.56;5072536;28;8991;-75
2021/05/07 03:34:58;;;;;;;;;8.50;8.50;;;;;31.56;56.51;99240.59;5079927;28;8837;-74
2021/05/07 03:37:26;;;;;;;;;9.00;9.00;;;;;31.56;56.43;99229.66;5075193;28;8825;-75
2021/05/07 03:39:54;;;;;;;;;8.50;8.50;;;;;31.68;56.09;99227.31;5075283;28;8838;-75
2021/05/07 03:42:22;;;;;;;;;10.00;10.00;;;;;31.75;56.24;99224.56;5074568;28;8848;-73
2021/05/07 03:44:52;;;;;;;;;7.25;7.00;;;;;31.79;54.88;99224.53;5074314;28;8853;-76
2021/05/07 03:47:20;;;;;;;;;8.00;8.00;;;;;31.85;54.62;99224.91;5074075;28;8953;-76
2021/05/07 03:49:48;;;;;;;;;9.00;9.00;;;;;31.90;54.72;99227.22;5081577;28;8888;-75
2021/05/07 03:52:17;;;;;;;;;7.60;7.60;;;;;31.94;55.94;99222.50;5081965;28;8832;-74
2021/05/07 03:54:46;;;;;;;;;7.20;7.20;;;;;31.95;55.17;99218.63;5081926;28;8833;-76
2021/05/07 03:57:14;;;;;;;;;4.80;4.80;;;;;31.98;54.82;99212.34;5080769;28;8836;-74
2021/05/07 03:59:43;;;;;;;;;9.50;9.50;;;;;31.93;54.53;99196.41;5081580;28;8841;-81
2021/05/07 04:02:11;;;;;;;;;6.40;6.40;;;;;32.01;55.70;99204.16;5086446;28;8856;-79
2021/05/07 04:04:42;;;;;;;;;9.20;9.20;;;;;31.96;55.93;99184.69;5077390;28;8843;-80
2021/05/07 04:07:11;;;;;;;;;9.80;9.80;;;;;31.94;54.73;99179.63;5074551;28;8856;-76
2021/05/07 04:09:44;;;;;;;;;10.25;10.25;;;;;31.98;53.96;99182.34;5085831;28;8828;-76
2021/05/07 04:12:20;;;;;;;;;7.25;7.25;;;;;32.03;56.30;99179.97;5087002;28;8844;-79
2021/05/07 04:14:50;;;;;;;;;8.50;8.50;;;;;31.98;56.31;99174.16;5083909;28;8843;-74
2021/05/07 04:17:18;;;;;;;;;8.50;8.50;;;;;31.94;56.38;99173.41;5084865;28;8974;-76
2021/05/07 04:19:46;;;;;;;;;7.00;7.00;;;;;31.85;55.87;99162.16;5087569;28;8814;-76
2021/05/07 04:22:14;;;;;;;;;7.00;6.80;;;;;31.89;53.72;99165.63;5091732;28;8906;-79
2021/05/07 04:24:44;;;;;;;;;6.40;6.20;;;;;31.91;54.41;99155.88;5088547;28;9611;-80
2021/05/07 04:27:13;;;;;;;;;8.40;8.40;;;;;31.99;55.81;99162.06;5097884;28;8856;-83
2021/05/07 04:29:41;;;;;;;;;8.75;8.75;;;;;32.05;55.27;99144.09;5089643;28;8849;-80
2021/05/07 04:32:10;;;;;;;;;4.75;4.75;;;;;32.16;53.17;99146.75;5081916;28;8816;-76
2021/05/07 04:34:38;;;;;;;;;6.80;6.80;;;;;32.21;52.11;99138.91;5076884;28;8834;-77
2021/05/07 04:37:06;;;;;;;;;6.40;6.40;;;;;32.34;51.56;99139.22;5079459;28;8925;-76
2021/05/07 04:39:35;;;;;;;;;6.20;6.20;;;;;32.46;51.94;99127.03;5078646;28;8833;-77
2021/05/07 04:42:03;;;;;;;;;7.60;6.20;;;;;32.53;52.94;99121.47;5077195;28;8966;-77
2021/05/07 04:44:31;;;;;;;;;5.75;5.75;;;;;32.66;52.70;99117.03;5082753;28;8868;-79
2021/05/07 04:47:00;;;;;;;;;1.00;1.00;;;;;32.69;54.17;99124.44;5084507;28;8818;-79
2021/05/07 04:49:28;;;;;;;;;5.80;5.80;;;;;32.70;49.95;99112.31;5083416;28;8840;-78
2021/05/07 04:51:56;;;;;;;;;6.20;6.20;;;;;32.78;50.60;99110.31;5081908;28;8863;-79
2021/05/07 04:54:26;;;;;;;;;6.20;6.20;;;;;32.88;50.63;99095.75;5077360;28;8833;-78
2021/05/07 04:56:54;;;;;;;;;5.40;5.40;;;;;32.95;51.91;99084.75;5078818;28;8832;-77
2021/05/07 04:59:22;;;;;;;;;6.60;6.60;;;;;32.98;53.13;99070.28;5076352;28;8845;-78
2021/05/07 05:01:51;;;;;;;;;9.00;9.00;;;;;33.06;49.08;99083.44;5078772;28;8867;-78
2021/05/07 05:04:19;;;;;;;;;5.00;5.00;;;;;33.12;52.58;99075.56;5077679;28;8843;-78
2021/05/07 05:06:47;;;;;;;;;0.40;0.20;;;;;33.07;50.47;99060.38;5077433;28;8836;-81
2021/05/07 05:09:15;;;;;;;;;8.60;8.60;;;;;33.17;50.27;99066.91;5082801;28;8860;-78
2021/05/07 05:11:44;;;;;;;;;6.80;6.80;;;;;33.27;47.55;99055.06;5085048;28;8875;-80
2021/05/07 05:14:12;;;;;;;;;8.80;8.80;;;;;33.34;48.71;99046.00;5088650;28;8848;-79
2021/05/07 05:16:40;;;;;;;;;7.00;7.00;;;;;33.45;49.49;99049.38;5080441;28;8868;-79
2021/05/07 05:19:09;;;;;;;;;0.00;0.00;;;;;33.53;49.88;99041.81;5082016;28;8840;-79
2021/05/07 05:21:37;;;;;;;;;7.80;7.80;;;;;33.57;48.98;99032.38;5082430;28;8854;-81
2021/05/07 05:24:06;;;;;;;;;6.40;6.40;;;;;33.67;49.37;99025.19;5083428;28;8849;-78
2021/05/07 05:26:35;;;;;;;;;7.40;7.40;;;;;33.71;49.63;99017.72;5083012;28;8840;-80
2021/05/07 05:29:04;;;;;;;;;8.40;8.40;;;;;33.77;50.54;99012.53;5080896;28;8850;-77
2021/05/07 05:31:32;;;;;;;;;6.20;6.20;;;;;33.80;48.97;99008.97;5081729;28;8844;-78
2021/05/07 05:34:00;;;;;;;;;7.00;7.00;;;;;33.86;52.42;99001.81;5080927;28;8879;-80
2021/05/07 05:36:29;;;;;;;;;6.20;6.20;;;;;33.80;51.75;99001.56;5083883;28;8845;-81
2021/05/07 05:38:57;;;;;;;;;6.40;6.40;;;;;33.82;49.28;98990.16;5085936;28;8838;-81
2021/05/07 05:41:25;;;;;;;;;7.00;7.00;;;;;33.84;50.79;98982.31;5088939;28;8923;-78
2021/05/07 05:43:53;;;;;;;;;8.00;8.00;;;;;33.84;51.01;98974.09;5093724;28;8855;-79
2021/05/07 05:46:22;;;;;;;;;7.60;7.60;;;;;33.87;46.88;98970.53;5081219;28;8871;-81
2021/05/07 05:48:50;;;;;;;;;4.00;4.00;;;;;33.88;48.56;98958.41;5091680;28;8971;-83
2021/05/07 05:51:18;;;;;;;;;6.60;6.60;;;;;33.92;48.15;98950.91;5119717;28;8870;-84
2021/05/07 05:53:46;;;;;;;;;5.80;5.80;;;;;34.14;51.21;98956.75;5103956;28;8906;-83
2021/05/07 05:56:14;;;;;;;;;4.00;4.00;;;;;34.16;50.75;98954.38;5110875;28;8914;-81
2021/05/07 05:58:42;;;;;;;;;7.00;7.00;;;;;34.14;44.17;98941.09;5099185;28;8891;-77
2021/05/07 06:01:10;;;;;;;;;6.20;6.20;;;;;34.18;44.69;98941.03;5090523;28;9607;-81
2021/05/07 06:03:39;;;;;;;;;6.40;6.40;;;;;34.25;46.30;98938.94;5083505;28;8883;-79
2021/05/07 06:06:07;;;;;;;;;3.20;3.20;;;;;34.35;44.49;98935.25;5085954;28;8921;-80
2021/05/07 06:08:36;;;;;;;;;5.80;5.80;;;;;34.48;45.58;98937.34;5085218;28;8832;-79
2021/05/07 06:11:04;;;;;;;;;7.00;7.00;;;;;34.59;48.46;98921.44;5087264;28;8840;-78
2021/05/07 06:13:33;;;;;;;;;7.20;7.20;;;;;34.66;49.69;98916.59;5082340;28;8824;-79
2021/05/07 06:16:02;;;;;;;;;8.20;8.20;;;;;34.66;47.67;98911.13;5088039;28;8902;-77
2021/05/07 06:18:32;;;;;;;;;8.20;8.20;;;;;34.62;45.87;98913.16;5093060;28;8825;-80
2021/05/07 06:21:04;;;;;;;;;6.00;6.00;;;;;34.53;43.46;98893.00;5094651;28;8830;-79
2021/05/07 06:23:33;;;;;;;;;6.00;6.00;;;;;34.65;47.73;98909.56;5090866;28;8828;-78
2021/05/07 06:26:02;;;;;;;;;7.40;7.40;;;;;34.73;45.95;98898.44;5092659;28;8837;-77
2021/05/07 06:28:31;;;;;;;;;4.60;4.60;;;;;34.77;49.01;98888.94;5090401;28;8842;-77
2021/05/07 06:31:03;;;;;;;;;7.60;7.60;;;;;34.84;48.67;98886.09;5093290;28;8841;-77
2021/05/07 06:33:31;;;;;;;;;7.20;7.20;;;;;34.84;48.88;98888.81;5108526;28;8906;-78
2021/05/07 06:36:00;;;;;;;;;6.20;6.20;;;;;34.78;45.04;98879.53;5092546;28;8829;-79
2021/05/07 06:38:28;;;;;;;;;7.00;7.00;;;;;34.80;45.39;98879.09;5092862;28;8836;-80
2021/05/07 06:40:57;;;;;;;;;9.20;9.20;;;;;34.88;43.87;98872.28;5090430;28;8841;-77
2021/05/07 06:43:26;;;;;;;;;8.40;8.40;;;;;35.00;48.02;98874.34;5088272;28;8818;-81
2021/05/07 06:45:56;;;;;;;;;7.00;7.00;;;;;35.08;45.05;98864.78;5080921;28;8971;-79
2021/05/07 06:48:27;;;;;;;;;6.80;6.80;;;;;35.17;48.47;98859.41;5080571;28;8870;-78
2021/05/07 06:50:57;;;;;;;;;7.60;7.60;;;;;35.24;46.06;98850.25;5085720;28;8833;-81
2021/05/07 06:53:25;;;;;;;;;8.00;8.00;;;;;35.30;45.75;98851.28;5086649;28;8832;-79
2021/05/07 06:55:54;;;;;;;;;8.40;8.40;;;;;35.36;44.41;98829.59;5086585;28;8837;-81
2021/05/07 06:58:42;;;;;;;;;6.80;6.80;;;;;35.58;48.22;98831.34;5082253;28;8805;-81
2021/05/07 07:01:11;;;;;;;;;8.40;8.40;;;;;35.66;45.58;98842.16;5077074;28;8849;-77
2021/05/07 07:03:40;;;;;;;;;9.00;9.00;;;;;35.72;46.58;98824.72;5079509;28;8846;-78
2021/05/07 07:06:09;;;;;;;;;1.80;1.80;;;;;35.79;43.01;98826.50;5079367;28;8956;-75
2021/05/07 07:08:38;;;;;;;;;8.40;8.20;;;;;35.86;45.94;98820.84;5080543;28;8839;-79
2021/05/07 07:11:06;;;;;;;;;7.00;7.00;;;;;35.85;46.58;98825.56;5078231;28;8840;-77
2021/05/07 07:13:35;;;;;;;;;4.00;4.00;;;;;35.75;42.52;98820.34;5079258;28;8836;-79
2021/05/07 07:16:03;;;;;;;;;9.00;9.00;;;;;35.75;43.69;98812.09;5087006;28;8841;-76
2021/05/07 07:18:32;;;;;;;;;8.40;8.40;;;;;35.82;47.48;98809.97;5092534;28;9574;-75
2021/05/07 07:21:00;;;;;;;;;8.00;8.00;;;;;35.84;47.06;98802.06;5092280;28;8984;-76
2021/05/07 07:23:28;;;;;;;;;3.00;3.00;;;;;35.88;47.50;98807.44;5091653;28;8953;-74
2021/05/07 07:25:57;;;;;;;;;7.00;7.00;;;;;35.83;46.81;98795.03;5091259;28;9740;-75
2021/05/07 07:28:25;;;;;;;;;6.20;6.20;;;;;35.85;47.46;98789.09;5090804;28;9678;-79
2021/05/07 07:30:53;;;;;;;;;6.40;6.40;;;;;35.75;43.10;98779.94;5091465;28;8833;-77
2021/05/07 07:33:23;;;;;;;;;6.20;6.20;;;;;35.78;46.71;98784.56;5091688;28;8849;-77
2021/05/07 07:35:51;;;;;;;;;7.00;7.00;;;;;35.81;46.54;98780.19;5092164;28;8934;-78
2021/05/07 07:38:19;;;;;;;;;5.20;5.20;;;;;35.80;45.63;98782.16;5092304;28;8857;-77
2021/05/07 07:40:48;;;;;;;;;7.40;7.40;;;;;35.78;47.16;98784.56;5092093;28;9673;-78
2021/05/07 07:43:17;;;;;;;;;11.40;11.40;;;;;35.66;44.82;98779.03;5092086;28;8829;-77
2021/05/07 07:45:45;;;;;;;;;8.20;8.20;;;;;35.51;46.38;98759.44;5092152;28;8898;-77
2021/05/07 07:48:14;;;;;;;;;7.60;7.60;;;;;35.50;47.45;98760.66;5092201;28;8834;-78
2021/05/07 07:50:44;;;;;;;;;7.60;7.60;;;;;35.46;47.00;98758.00;5092193;28;8853;-77
2021/05/07 07:53:13;;;;;;;;;8.40;8.20;;;;;35.39;45.54;98755.44;5092227;28;8830;-77
2021/05/07 07:55:41;;;;;;;;;8.00;8.00;;;;;35.36;43.29;98755.56;5092234;28;8861;-78
2021/05/07 07:58:09;;;;;;;;;5.40;5.40;;;;;35.43;44.01;98758.09;5092738;28;9602;-78
2021/05/07 08:00:37;;;;;;;;;7.40;7.40;;;;;35.56;47.22;98750.69;5092254;28;8841;-77
2021/05/07 08:03:06;;;;;;;;;7.80;7.40;;;;;35.60;45.74;98751.34;5092442;28;9562;-77
2021/05/07 08:05:36;;;;;;;;;8.20;8.20;;;;;35.57;45.44;98750.25;5092070;28;8845;-77
2021/05/07 08:08:04;;;;;;;;;5.00;5.00;;;;;35.55;43.78;98733.44;5092114;28;8834;-77
2021/05/07 08:10:33;;;;;;;;;7.80;7.80;;;;;35.61;46.89;98726.22;5091351;28;8899;-75
2021/05/07 08:13:01;;;;;;;;;8.00;8.00;;;;;35.60;45.45;98724.69;5091974;28;8949;-75
2021/05/07 08:15:30;;;;;;;;;8.00;8.00;;;;;35.61;46.16;98715.25;5081972;28;8831;-73
2021/05/07 08:17:58;;;;;;;;;7.80;7.80;;;;;35.68;44.54;98714.28;5079153;28;8814;-73
2021/05/07 08:20:27;;;;;;;;;8.80;8.80;;;;;35.75;43.74;98714.06;5078278;28;8848;-73
2021/05/07 08:22:56;;;;;;;;;8.20;7.80;;;;;35.84;46.14;98707.97;5074598;28;8840;-76
2021/05/07 08:25:25;;;;;;;;;9.60;9.60;;;;;35.92;45.07;98712.03;5079925;28;8829;-75
2021/05/07 08:27:59;;;;;;;;;9.80;9.80;;;;;35.95;46.06;98711.91;5080163;28;8844;-77
2021/05/07 08:30:28;;;;;;;;;5.20;5.20;;;;;35.89;45.81;98705.44;5073511;28;8852;-75
2021/05/07 08:32:57;;;;;;;;;6.80;6.80;;;;;35.77;43.66;98695.19;5077857;28;8840;-77
2021/05/07 08:35:25;;;;;;;;;8.80;8.80;;;;;35.68;46.20;98688.81;5091773;28;8848;-75
2021/05/07 08:37:54;;;;;;;;;5.80;5.80;;;;;35.59;45.87;98705.91;5083568;28;8836;-75
2021/05/07 08:40:23;;;;;;;;;7.60;7.60;;;;;35.43;46.17;98697.75;5083874;28;8839;-75
2021/05/07 08:42:51;;;;;;;;;6.00;6.00;;;;;35.27;44.75;98695.81;5078470;28;8974;-77
2021/05/07 08:45:20;;;;;;;;;3.00;3.00;;;;;35.17;42.54;98696.88;5074565;28;8885;-74
2021/05/07 08:48:09;;;;;;;;;8.60;8.60;;;;;35.13;43.30;98693.47;5082384;28;8865;-76
2021/05/07 08:50:52;;;;;;;;;8.60;8.60;;;;;35.16;44.29;98681.63;5084209;28;8850;-76
2021/05/07 08:53:21;;;;;;;;;6.60;6.60;;;;;35.25;43.06;98688.00;5079707;28;8899;-76
2021/05/07 08:55:50;;;;;;;;;8.20;8.20;;;;;35.42;43.60;98691.50;5084415;28;8908;-76
2021/05/07 08:58:18;;;;;;;;;6.20;6.20;;;;;35.55;42.89;98680.56;5083251;28;8852;-73
2021/05/07 09:00:48;;;;;;;;;7.80;7.80;;;;;35.72;43.17;98681.22;5082980;28;8854;-75
2021/05/07 09:03:17;;;;;;;;;8.00;8.00;;;;;35.81;45.56;98673.91;5100778;28;8841;-76
2021/05/07 09:05:47;;;;;;;;;9.40;9.40;;;;;35.86;42.34;98661.63;5081518;28;8909;-78
2021/05/07 09:08:17;;;;;;;;;7.20;6.80;;;;;35.86;45.79;98662.41;5076845;28;8848;-77
2021/05/07 09:10:47;;;;;;;;;8.60;8.60;;;;;35.88;45.95;98661.97;5077747;28;8843;-75
2021/05/07 09:13:21;;;;;;;;;8.00;8.00;;;;;35.76;45.28;98665.44;5087319;28;8845;-75
2021/05/07 09:15:50;;;;;;;;;9.20;9.20;;;;;35.69;42.54;98660.94;5079517;28;8840;-75
2021/05/07 09:18:19;;;;;;;;;9.40;9.40;;;;;35.71;43.33;98663.22;5078147;28;8846;-75
2021/05/07 09:20:50;;;;;;;;;6.60;6.60;;;;;35.74;41.90;98654.91;5082817;28;8963;-77
2021/05/07 09:23:19;;;;;;;;;8.20;8.20;;;;;35.80;42.88;98650.41;5083637;28;8828;-76
2021/05/07 09:25:59;;;;;;;;;8.00;8.00;;;;;35.94;41.52;98655.47;5095854;28;8848;-77
2021/05/07 09:28:27;;;;;;;;;8.80;8.80;;;;;36.00;42.29;98658.44;5081325;28;8838;-76
2021/05/07 09:31:14;;;;;;;;;7.40;7.40;;;;;35.98;43.81;98655.38;5081300;28;8970;-74
2021/05/07 09:33:53;;;;;;;;;9.20;9.20;;;;;35.96;43.00;98655.03;5082452;28;8841;-76
2021/05/07 09:36:30;;;;;;;;;5.60;5.60;;;;;35.98;42.95;98662.84;5082803;28;9560;-75
2021/05/07 09:39:00;;;;;;;;;9.60;9.40;;;;;35.93;42.21;98653.94;5080807;28;8853;-75
2021/05/07 09:41:48;;;;;;;;;8.40;8.40;;;;;35.97;41.39;98661.28;5077353;28;8862;-75
2021/05/07 09:44:26;;;;;;;;;7.80;7.80;;;;;36.02;42.83;98661.50;5079746;28;8850;-75
2021/05/07 09:46:55;;;;;;;;;9.20;9.20;;;;;36.06;42.94;98655.91;5076471;28;8907;-76
2021/05/07 09:49:26;;;;;;;;;9.60;9.60;;;;;36.07;41.94;98657.44;5079019;28;8844;-73
2021/05/07 09:51:56;;;;;;;;;9.00;9.00;;;;;36.09;44.77;98655.03;5075971;28;8871;-73
2021/05/07 09:54:26;;;;;;;;;9.80;8.40;;;;;36.05;45.21;98652.41;5076026;28;8831;-74
2021/05/07 09:56:56;;;;;;;;;7.40;7.40;;;;;35.99;44.79;98651.41;5092095;28;8852;-73
2021/05/07 09:59:26;;;;;;;;;8.40;8.40;;;;;35.92;44.13;98657.13;5079841;28;8977;-77
2021/05/07 10:01:54;;;;;;;;;5.80;5.80;;;;;35.76;45.58;98649.72;5084730;28;8940;-76
2021/05/07 10:04:23;;;;;;;;;8.20;8.20;;;;;35.61;45.79;98657.63;5102123;28;8847;-78
2021/05/07 10:06:52;;;;;;;;;7.60;7.60;;;;;35.42;45.71;98655.84;5073280;28;8890;-77
2021/05/07 10:09:24;;;;;;;;;7.20;7.20;;;;;35.31;45.37;98661.63;5072494;28;8908;-79
2021/05/07 10:11:57;;;;;;;;;10.20;8.00;;;;;35.20;45.45;98663.88;5077445;28;8859;-79
2021/05/07 10:14:27;;;;;;;;;5.80;5.80;;;;;35.14;44.16;98668.34;5080283;28;8840;-77
2021/05/07 10:16:56;;;;;;;;;8.40;8.40;;;;;35.15;45.04;98675.38;5087132;28;8828;-82
2021/05/07 10:19:28;;;;;;;;;6.20;6.20;;;;;35.16;44.79;98665.16;5093476;28;8825;-80
2021/05/07 10:22:18;;;;;;;;;9.00;9.00;;;;;35.17;45.40;98669.44;5087467;28;8920;-85
2021/05/07 10:24:46;;;;;;;;;6.00;6.00;;;;;35.12;44.19;98650.78;5107828;28;8898;-84
2021/05/07 10:27:22;;;;;;;;;6.80;6.80;;;;;35.12;44.60;98651.56;5081730;28;8922;-83
2021/05/07 10:29:56;;;;;;;;;7.60;7.60;;;;;35.10;44.03;98655.97;5076842;28;8852;-84
2021/05/07 10:32:32;;;;;;;;;8.00;8.00;;;;;35.06;43.68;98658.81;5074160;28;8870;-81
2021/05/07 10:35:05;;;;;;;;;8.60;8.60;;;;;35.02;44.65;98668.31;5083804;28;9802;-85
2021/05/07 10:37:39;;;;;;;;;8.00;8.00;;;;;34.93;45.97;98668.94;5080317;28;8843;-85
2021/05/07 10:40:10;;;;;;;;;8.60;8.60;;;;;34.77;44.57;98664.25;5090171;28;8841;-82
2021/05/07 10:42:38;;;;;;;;;8.00;8.00;;;;;34.66;44.75;98663.75;5099643;28;8833;-85
2021/05/07 10:45:07;;;;;;;;;7.80;7.80;;;;;34.47;45.62;98640.75;5078474;28;9042;-79
2021/05/07 10:47:37;;;;;;;;;8.00;7.80;;;;;34.46;44.54;98657.59;5087875;28;8830;-82
2021/05/07 10:50:16;;;;;;;;;7.40;7.40;;;;;34.44;44.88;98657.25;5086375;28;8841;-80
2021/05/07 10:52:45;;;;;;;;;7.00;7.00;;;;;34.38;44.50;98664.47;5080474;28;8879;-83
2021/05/07 10:55:16;;;;;;;;;6.60;6.60;;;;;34.39;44.94;98668.75;5082251;28;8855;-81
2021/05/07 10:57:54;;;;;;;;;7.80;7.80;;;;;34.38;44.96;98672.66;5091345;28;8918;-80
2021/05/07 11:00:34;;;;;;;;;7.00;7.00;;;;;34.33;44.20;98672.00;5084278;28;8849;-80
2021/05/07 11:03:05;;;;;;;;;7.20;7.20;;;;;34.34;45.49;98672.75;5081527;28;8859;-79
2021/05/07 11:05:44;;;;;;;;;7.40;7.40;;;;;34.36;45.61;98686.78;5082545;28;8979;-77
2021/05/07 11:08:13;;;;;;;;;7.20;7.20;;;;;34.28;45.83;98688.91;5087154;28;8866;-78
2021/05/07 11:10:43;;;;;;;;;10.20;10.20;;;;;34.15;45.99;98699.00;5074984;28;8887;-77
2021/05/07 11:13:12;;;;;;;;;13.60;13.60;;;;;34.08;45.89;98699.16;5084891;28;8872;-77
2021/05/07 11:15:40;;;;;;;;;14.00;14.00;;;;;33.95;46.13;98701.00;5084577;28;8837;-78
2021/05/07 11:18:11;;;;;;;;;12.20;12.20;;;;;33.88;46.00;98709.38;5084784;28;8826;-82
2021/05/07 11:20:45;;;;;;;;;6.80;6.80;;;;;33.81;46.35;98709.53;5084754;28;8888;-79
2021/05/07 11:23:14;;;;;;;;;10.40;10.40;;;;;33.74;45.95;98720.63;5082056;28;8824;-77
2021/05/07 11:25:42;;;;;;;;;47.25;40.00;;;;;33.62;49.27;98722.78;5074119;28;8865;-76
2021/05/07 11:28:18;;;;;;;;;17.75;17.50;;;;;33.64;47.55;98727.84;5074893;28;8868;-76
2021/05/07 11:30:58;;;;;;;;;11.00;10.40;;;;;33.65;47.08;98724.69;5076599;28;8847;-77
2021/05/07 11:33:30;;;;;;;;;12.20;11.80;;;;;33.68;47.40;98732.06;5093190;28;8844;-77
2021/05/07 11:36:14;;;;;;;;;41.75;37.00;;;;;33.71;46.81;98744.13;5075097;28;8858;-78
2021/05/07 11:38:44;;;;;;;;;13.00;10.20;;;;;33.74;47.01;98748.75;5077876;28;9557;-78
2021/05/07 11:41:22;;;;;;;;;10.60;10.60;;;;;33.75;47.32;98747.56;5084160;28;8930;-82
2021/05/07 11:43:52;;;;;;;;;5.60;5.60;;;;;33.77;47.35;98742.44;5091051;28;8922;-82
2021/05/07 11:46:20;;;;;;;;;17.20;14.80;;;;;33.77;47.80;98747.91;5084214;28;8876;-81
2021/05/07 11:48:52;;;;;;;;;14.20;14.20;;;;;33.78;47.78;98749.44;5082662;28;8852;-79
2021/05/07 11:51:23;;;;;;;;;14.60;14.60;;;;;33.75;48.00;98750.28;5090953;28;9642;-80